This is the latest recevied weather packets stored in our database for station/object W4SKW. If no packets are shown the sender has not sent any weather packets the latest 10 day(s).
| Time | Temp. | Humidity | Pressure | Rain* | Wind** | Luminosity | Snow |
|---|---|---|---|---|---|---|---|
| 1777986456 | 12.78° C | 87% | 1017.5 hPa | 0 mm | - | 60 W/m² | - |
| 1777986154 | 12.22° C | 88% | 1017.1 hPa | 0 mm | - | 41 W/m² | - |
| 1777985850 | 11.67° C | 89% | 1017.1 hPa | 0 mm | - | 36 W/m² | - |
| 1777985465 | 10.56° C | 95% | 1016.6 hPa | 0 mm | - | 58 W/m² | - |
| 1777985162 | 10.56° C | 95% | 1016.6 hPa | 0 mm | - | 58 W/m² | - |
| 1777984858 | 10.56° C | 95% | 1016.6 hPa | 0 mm | - | 58 W/m² | - |
| 1777984554 | 10.56° C | 96% | 1016.7 hPa | 0 mm | - | 43 W/m² | - |
| 1777984251 | 10° C | 96% | 1016.6 hPa | 0 mm | - | 33 W/m² | - |
| 1777983948 | 10° C | 96% | 1016.6 hPa | 0 mm | - | 35 W/m² | - |
| 1777983645 | 10° C | 96% | 1016.4 hPa | 0 mm | - | 33 W/m² | - |
| 1777983341 | 9.44° C | 96% | 1016.3 hPa | 0 mm | - | 35 W/m² | - |
| 1777983038 | 9.44° C | 96% | 1016.3 hPa | 0 mm | - | 35 W/m² | - |
| 1777982735 | 8.89° C | 97% | 1016.3 hPa | 0 mm | - | 48 W/m² | - |
| 1777982430 | 8.89° C | 97% | 1016.3 hPa | 0 mm | - | 48 W/m² | - |
| 1777982125 | 8.89° C | 97% | 1016.3 hPa | 0 mm | - | 49 W/m² | - |
| 1777981822 | 8.89° C | 97% | 1016.3 hPa | 0 mm | - | 46 W/m² | - |
| 1777981519 | 8.33° C | 97% | 1016.2 hPa | 0 mm | - | 47 W/m² | - |
| 1777981204 | 7.78° C | 97% | 1016.2 hPa | 0 mm | - | 35 W/m² | - |
| 1777980901 | 7.78° C | 97% | 1016.2 hPa | 0 mm | - | 35 W/m² | - |
| 1777980596 | 7.78° C | 97% | 1015.9 hPa | 0 mm | - | 21 W/m² | - |
| 1777980293 | 7.78° C | 97% | 1015.9 hPa | 0 mm | - | 21 W/m² | - |
| 1777979990 | 7.22° C | 97% | 1015.7 hPa | 0 mm | - | 19 W/m² | - |
| 1777979684 | 7.22° C | 97% | 1015.7 hPa | 0 mm | - | 14 W/m² | - |
| 1777979381 | 7.22° C | 97% | 1015.7 hPa | 0 mm | - | 14 W/m² | - |
| 1777979078 | 7.22° C | 97% | 1015.6 hPa | 0 mm | - | 10 W/m² | - |
* Rain latest hour (hover to see other rain measurements)
** Current wind speed in m/s (hover to see current wind gust speed)